Mount Eden, California
Current Conditions -  °F | °C
As of 4:54 AM on Friday 19 Dec 2014 (Local Time) from KHWD Reporting Station
Overcast Overcast  
Wind Chill: 58°   Ceiling: 3700
Heat Index: 58°   Visibility: 10mi
Dew Point: 50°   Wind: 13mph
Humidity: 75%   Direction: 160°SSE
Pressure: 30.13"   Gusts: NA
Location:  37.6276°N, 122.104°W
Report Text: KHWD 191254Z AUTO 16011KT 10SM BKN037 OVC050 14/10 A3013 RMK AO2 RAE22 SLP211 P0000 T01440100
Loading
Personal Weather Stations






























Interactive Weather Map New forecast layout! Learn more

10-Day Weather Forecast

Advertisements
Track Severe Weather on mobile